Time;durP1;ratioP1;P1;durP2;ratioP2;P2;SDS_P1;SDS_P2;PMS_P1;PMS_P2;Temp;Humidity;BMP_temperature;BMP_pressure;BME280_temperature;BME280_humidity;BME280_pressure;Samples;Min_cycle;Max_cycle;Signal;HPM_P1;HPM_P2
2022/04/21 00:01:37;;;;;;;18.90;13.02;;;;;;;;;;5052792;28;20056;-81
2022/04/21 00:04:03;;;;;;;20.65;12.88;;;;;;;;;;5072555;28;20104;-81
2022/04/21 00:06:29;;;;;;;16.38;11.98;;;;;;;;;;5072750;28;20021;-81
2022/04/21 00:08:55;;;;;;;19.38;12.77;;;;;;;;;;5055492;28;20041;-81
2022/04/21 00:11:21;;;;;;;17.80;12.52;;;;;;;;;;5041523;28;20041;-81
2022/04/21 00:13:47;;;;;;;20.27;13.55;;;;;;;;;;5062351;28;20040;-81
2022/04/21 00:16:13;;;;;;;18.75;12.90;;;;;;;;;;5051345;28;20033;-82
2022/04/21 00:18:40;;;;;;;17.30;12.38;;;;;;;;;;5051993;28;20105;-81
2022/04/21 00:21:06;;;;;;;17.52;12.65;;;;;;;;;;5049763;28;20539;-82
2022/04/21 00:23:33;;;;;;;18.40;13.45;;;;;;;;;;5056131;28;20055;-81
2022/04/21 00:26:00;;;;;;;18.73;13.40;;;;;;;;;;5047344;28;20036;-81
2022/04/21 00:28:28;;;;;;;18.25;12.85;;;;;;;;;;5049584;28;20093;-81
2022/04/21 00:30:54;;;;;;;20.02;12.90;;;;;;;;;;5047847;28;20051;-82
2022/04/21 00:33:21;;;;;;;17.15;12.68;;;;;;;;;;5078791;28;20247;-81
2022/04/21 00:35:47;;;;;;;21.35;13.95;;;;;;;;;;5077435;28;20021;-81
2022/04/21 00:38:13;;;;;;;18.23;12.63;;;;;;;;;;5071781;28;20026;-81
2022/04/21 00:40:39;;;;;;;20.75;12.82;;;;;;;;;;5061920;28;20024;-81
2022/04/21 00:43:06;;;;;;;20.77;13.65;;;;;;;;;;5057324;28;20013;-81
2022/04/21 00:45:33;;;;;;;19.48;12.82;;;;;;;;;;5057297;28;20033;-81
2022/04/21 00:48:01;;;;;;;17.35;12.35;;;;;;;;;;5058009;28;20377;-81
2022/04/21 00:50:31;;;;;;;19.15;13.07;;;;;;;;;;5072160;28;20033;-81
2022/04/21 00:52:58;;;;;;;18.40;12.75;;;;;;;;;;5073726;28;20068;-81
2022/04/21 00:55:24;;;;;;;16.88;12.25;;;;;;;;;;5057397;28;20080;-81
2022/04/21 00:57:52;;;;;;;17.27;12.85;;;;;;;;;;5063355;28;20044;-81
2022/04/21 01:00:19;;;;;;;18.70;12.32;;;;;;;;;;5063901;28;20014;-81
2022/04/21 01:02:52;;;;;;;18.45;12.32;;;;;;;;;;5060504;28;20044;-81
2022/04/21 01:05:28;;;;;;;19.25;11.95;;;;;;;;;;5077916;28;20039;-81
2022/04/21 01:07:55;;;;;;;18.52;12.43;;;;;;;;;;5070906;28;20071;-81
2022/04/21 01:10:22;;;;;;;18.35;13.32;;;;;;;;;;5046366;28;20033;-82
2022/04/21 01:12:48;;;;;;;18.77;12.38;;;;;;;;;;5051493;28;20055;-81
2022/04/21 01:15:14;;;;;;;18.77;13.52;;;;;;;;;;5054456;28;20029;-81
2022/04/21 01:17:41;;;;;;;17.38;12.13;;;;;;;;;;5060885;28;20088;-82
2022/04/21 01:20:09;;;;;;;16.92;11.90;;;;;;;;;;5057729;28;20026;-83
2022/04/21 01:22:35;;;;;;;17.10;11.80;;;;;;;;;;5041799;28;20234;-82
2022/04/21 01:25:01;;;;;;;17.20;13.00;;;;;;;;;;5067419;28;20022;-83
2022/04/21 01:27:29;;;;;;;17.38;12.98;;;;;;;;;;5056542;28;20045;-82
2022/04/21 01:29:55;;;;;;;18.10;12.48;;;;;;;;;;5059940;28;20029;-81
2022/04/21 01:32:21;;;;;;;19.65;12.60;;;;;;;;;;5036689;28;20018;-82
2022/04/21 01:34:47;;;;;;;16.95;12.15;;;;;;;;;;5052504;28;20029;-82
2022/04/21 01:42:43;;;;;;;19.73;13.82;;;;;;;;;;5074267;28;20032;-82
2022/04/21 01:45:09;;;;;;;20.70;14.00;;;;;;;;;;5059846;28;20071;-82
2022/04/21 01:47:35;;;;;;;19.98;13.85;;;;;;;;;;5054445;28;20085;-82
2022/04/21 01:50:07;;;;;;;19.85;13.82;;;;;;;;;;5040547;28;20025;-82
2022/04/21 01:52:33;;;;;;;19.20;13.00;;;;;;;;;;5044954;28;20027;-83
2022/04/21 01:54:59;;;;;;;20.88;13.93;;;;;;;;;;5059583;28;20032;-82
2022/04/21 01:57:25;;;;;;;20.73;14.03;;;;;;;;;;5053365;28;20025;-82
2022/04/21 01:59:51;;;;;;;20.58;13.70;;;;;;;;;;5050155;28;20022;-81
2022/04/21 02:02:17;;;;;;;17.95;12.77;;;;;;;;;;5033225;28;20046;-82
2022/04/21 02:04:43;;;;;;;20.42;13.32;;;;;;;;;;5036083;28;20183;-82
2022/04/21 02:07:09;;;;;;;22.08;14.68;;;;;;;;;;5061629;28;20051;-82
2022/04/21 02:09:35;;;;;;;19.42;13.27;;;;;;;;;;5035182;28;20048;-82
2022/04/21 02:12:01;;;;;;;21.42;14.25;;;;;;;;;;5034103;28;20026;-83
2022/04/21 02:14:27;;;;;;;19.92;12.88;;;;;;;;;;5048160;28;20075;-81
2022/04/21 02:16:53;;;;;;;20.90;14.05;;;;;;;;;;5073537;28;20029;-82
2022/04/21 02:19:19;;;;;;;20.75;13.90;;;;;;;;;;5070673;28;20029;-81
2022/04/21 02:21:45;;;;;;;20.33;14.15;;;;;;;;;;5033182;28;20044;-81
2022/04/21 02:24:11;;;;;;;21.33;14.68;;;;;;;;;;5053035;28;20041;-82
2022/04/21 02:26:37;;;;;;;19.23;13.20;;;;;;;;;;5053943;28;20052;-82
2022/04/21 02:29:03;;;;;;;22.38;13.93;;;;;;;;;;5052153;28;20113;-82
2022/04/21 02:31:29;;;;;;;19.80;13.30;;;;;;;;;;5051083;28;20025;-82
2022/04/21 02:33:55;;;;;;;21.55;13.82;;;;;;;;;;5053767;28;20049;-82
2022/04/21 02:36:21;;;;;;;19.65;13.95;;;;;;;;;;5067312;28;20043;-82
2022/04/21 02:38:47;;;;;;;20.02;14.07;;;;;;;;;;5073162;28;20025;-81
2022/04/21 02:41:15;;;;;;;19.42;12.90;;;;;;;;;;5045691;28;20025;-83
2022/04/21 02:43:41;;;;;;;19.77;13.55;;;;;;;;;;5036605;28;20009;-82
2022/04/21 02:46:07;;;;;;;18.73;12.93;;;;;;;;;;5067763;28;20084;-82
2022/04/21 02:48:33;;;;;;;21.27;14.48;;;;;;;;;;5065177;28;20029;-82
2022/04/21 02:50:59;;;;;;;22.38;14.65;;;;;;;;;;5040999;28;20048;-82
2022/04/21 02:58:54;;;;;;;22.67;13.60;;;;;;;;;;5052907;28;20073;-82
2022/04/21 03:01:20;;;;;;;21.88;14.20;;;;;;;;;;5040594;28;20337;-82
2022/04/21 03:03:46;;;;;;;20.23;13.75;;;;;;;;;;5048845;28;20045;-82
2022/04/21 03:06:12;;;;;;;22.33;14.57;;;;;;;;;;5073923;28;20025;-83
2022/04/21 03:08:39;;;;;;;24.27;14.23;;;;;;;;;;5075848;28;20044;-83
2022/04/21 03:11:05;;;;;;;19.80;14.25;;;;;;;;;;5056304;28;20049;-83
2022/04/21 03:13:31;;;;;;;21.92;14.32;;;;;;;;;;5041709;28;20045;-83
2022/04/21 03:15:57;;;;;;;20.60;14.05;;;;;;;;;;5057989;28;20017;-83
2022/04/21 03:18:23;;;;;;;19.83;13.63;;;;;;;;;;5057428;28;20136;-82
2022/04/21 03:26:18;;;;;;;21.45;14.48;;;;;;;;;;5068313;28;20035;-82
2022/04/21 03:28:45;;;;;;;20.50;14.23;;;;;;;;;;5070856;28;20045;-82
2022/04/21 03:31:11;;;;;;;22.45;16.02;;;;;;;;;;5049888;28;20061;-82
2022/04/21 03:33:37;;;;;;;23.73;14.90;;;;;;;;;;5032273;28;20022;-82
2022/04/21 03:36:04;;;;;;;23.70;14.68;;;;;;;;;;5030829;28;20026;-82
2022/04/21 03:38:29;;;;;;;22.77;14.85;;;;;;;;;;5045571;28;20033;-83
2022/04/21 03:40:58;;;;;;;22.60;15.73;;;;;;;;;;5048539;28;20032;-82
2022/04/21 03:43:24;;;;;;;22.70;15.00;;;;;;;;;;5040272;28;20031;-83
2022/04/21 03:45:50;;;;;;;21.08;15.27;;;;;;;;;;5031733;28;20057;-82
2022/04/21 03:48:16;;;;;;;21.35;14.77;;;;;;;;;;5041172;28;20034;-83
2022/04/21 03:50:43;;;;;;;23.38;15.50;;;;;;;;;;5047456;28;20017;-82
2022/04/21 03:53:09;;;;;;;24.90;16.23;;;;;;;;;;5047973;28;20041;-84
2022/04/21 03:55:35;;;;;;;23.23;15.50;;;;;;;;;;5053713;28;20030;-81
2022/04/21 03:58:01;;;;;;;22.27;15.43;;;;;;;;;;5066898;28;20052;-83
2022/04/21 04:00:27;;;;;;;22.25;14.65;;;;;;;;;;5059688;28;20048;-82
2022/04/21 04:02:54;;;;;;;23.85;15.93;;;;;;;;;;5070515;28;20032;-81
2022/04/21 04:05:20;;;;;;;22.20;15.10;;;;;;;;;;5069620;28;20029;-81
2022/04/21 04:13:16;;;;;;;23.58;14.70;;;;;;;;;;5051094;28;20039;-82
2022/04/21 04:15:44;;;;;;;23.48;16.38;;;;;;;;;;5035193;28;20085;-81
2022/04/21 04:18:10;;;;;;;23.83;15.75;;;;;;;;;;5038944;28;20037;-82
2022/04/21 04:20:36;;;;;;;38.22;18.45;;;;;;;;;;5052408;28;20032;-81
2022/04/21 04:23:02;;;;;;;32.15;16.55;;;;;;;;;;5064957;28;20025;-82
2022/04/21 04:25:28;;;;;;;26.08;16.35;;;;;;;;;;5035672;28;20022;-81
2022/04/21 04:27:54;;;;;;;24.20;16.63;;;;;;;;;;5042446;28;20078;-82
2022/04/21 04:30:20;;;;;;;26.50;15.68;;;;;;;;;;5047524;28;20033;-81
2022/04/21 04:32:46;;;;;;;25.38;17.45;;;;;;;;;;5041205;28;20030;-81
2022/04/21 04:35:12;;;;;;;25.52;15.80;;;;;;;;;;5044830;28;20045;-81
2022/04/21 04:37:39;;;;;;;26.58;17.17;;;;;;;;;;5050022;28;20442;-82
2022/04/21 04:40:05;;;;;;;35.30;19.02;;;;;;;;;;5067933;28;20104;-81
2022/04/21 04:42:31;;;;;;;23.85;18.02;;;;;;;;;;5041417;28;20037;-81
2022/04/21 04:47:42;;;;;;;23.80;16.00;;;;;;;;;;5039454;28;20120;-81
2022/04/21 04:50:08;;;;;;;26.27;17.05;;;;;;;;;;5053171;28;20025;-82
2022/04/21 04:52:34;;;;;;;23.17;15.77;;;;;;;;;;5060435;28;20395;-82
2022/04/21 04:55:00;;;;;;;23.73;15.82;;;;;;;;;;5066951;28;20084;-81
2022/04/21 04:57:26;;;;;;;24.20;16.27;;;;;;;;;;5051341;28;20026;-81
2022/04/21 04:59:52;;;;;;;24.85;16.33;;;;;;;;;;5043209;28;20026;-81
2022/04/21 05:02:20;;;;;;;23.17;16.60;;;;;;;;;;5037065;28;20090;-82
2022/04/21 05:04:47;;;;;;;23.42;16.17;;;;;;;;;;5039665;28;20360;-81
2022/04/21 05:07:14;;;;;;;24.60;16.48;;;;;;;;;;5040292;28;20045;-82
2022/04/21 05:09:40;;;;;;;24.15;17.67;;;;;;;;;;5047997;28;20029;-81
2022/04/21 05:12:07;;;;;;;25.85;17.15;;;;;;;;;;5046447;28;20018;-81
2022/04/21 05:14:37;;;;;;;24.70;16.92;;;;;;;;;;5047439;28;20041;-81
2022/04/21 05:17:03;;;;;;;24.98;16.65;;;;;;;;;;5051681;28;20033;-81
2022/04/21 05:19:29;;;;;;;25.48;18.08;;;;;;;;;;5051863;28;20040;-82
2022/04/21 05:21:57;;;;;;;26.10;16.50;;;;;;;;;;5054292;28;20064;-82
2022/04/21 05:24:24;;;;;;;24.85;17.63;;;;;;;;;;5059035;28;20021;-82
2022/04/21 05:26:50;;;;;;;27.23;18.08;;;;;;;;;;5068122;28;20029;-82
2022/04/21 05:32:02;;;;;;;26.80;17.02;;;;;;;;;;5050199;28;20040;-81
2022/04/21 05:34:29;;;;;;;28.70;17.52;;;;;;;;;;5061015;28;20018;-82
2022/04/21 05:36:55;;;;;;;27.73;17.00;;;;;;;;;;5064924;28;20029;-81
2022/04/21 05:39:22;;;;;;;29.02;17.75;;;;;;;;;;5052519;28;20118;-82
2022/04/21 05:41:48;;;;;;;25.55;17.25;;;;;;;;;;5053148;28;20474;-81
2022/04/21 05:44:14;;;;;;;24.95;16.17;;;;;;;;;;5051641;28;20026;-82
2022/04/21 05:46:41;;;;;;;25.95;17.10;;;;;;;;;;5068136;28;20025;-81
2022/04/21 05:49:07;;;;;;;26.95;17.63;;;;;;;;;;5072584;28;20028;-82
2022/04/21 05:51:33;;;;;;;27.38;18.17;;;;;;;;;;5072172;28;20029;-82
2022/04/21 05:53:59;;;;;;;28.42;17.90;;;;;;;;;;5066140;28;20030;-82
2022/04/21 05:56:26;;;;;;;27.65;18.30;;;;;;;;;;5052617;28;20059;-82
2022/04/21 05:58:52;;;;;;;25.83;17.90;;;;;;;;;;5050401;28;20029;-82
2022/04/21 06:01:18;;;;;;;26.30;18.65;;;;;;;;;;5067907;28;20091;-82
2022/04/21 06:03:44;;;;;;;30.52;19.35;;;;;;;;;;5071146;28;20029;-82
2022/04/21 06:06:10;;;;;;;27.98;18.65;;;;;;;;;;5072207;28;20017;-82
2022/04/21 06:08:37;;;;;;;30.25;20.42;;;;;;;;;;5071722;28;20053;-83
2022/04/21 06:11:04;;;;;;;30.35;19.25;;;;;;;;;;5057761;28;20059;-82
2022/04/21 06:13:30;;;;;;;34.20;19.80;;;;;;;;;;5064200;28;20030;-82
2022/04/21 06:15:56;;;;;;;28.67;19.40;;;;;;;;;;5052634;28;20040;-82
2022/04/21 06:18:23;;;;;;;32.08;20.30;;;;;;;;;;5060128;28;20048;-83
2022/04/21 06:20:50;;;;;;;30.85;20.92;;;;;;;;;;5052444;28;20075;-82
2022/04/21 06:23:16;;;;;;;31.90;19.15;;;;;;;;;;5052550;28;20021;-82
2022/04/21 06:25:43;;;;;;;28.17;19.58;;;;;;;;;;5053723;28;20022;-83
2022/04/21 06:28:09;;;;;;;31.20;20.63;;;;;;;;;;5051891;28;20029;-82
2022/04/21 06:30:35;;;;;;;28.67;19.40;;;;;;;;;;5052424;28;20060;-82
2022/04/21 06:33:02;;;;;;;30.38;19.77;;;;;;;;;;5053956;28;20056;-83
2022/04/21 06:35:28;;;;;;;26.42;18.25;;;;;;;;;;5051698;28;20032;-82
2022/04/21 06:37:55;;;;;;;26.98;19.88;;;;;;;;;;5052044;28;20103;-82
2022/04/21 06:40:21;;;;;;;29.85;19.60;;;;;;;;;;5053182;28;20052;-83
2022/04/21 06:42:47;;;;;;;29.77;19.92;;;;;;;;;;5056984;28;20100;-81
2022/04/21 06:48:01;;;;;;;31.15;19.48;;;;;;;;;;5073332;28;20170;-84
2022/04/21 06:50:28;;;;;;;26.23;20.10;;;;;;;;;;5058842;28;20040;-82
2022/04/21 06:52:54;;;;;;;28.63;19.38;;;;;;;;;;5066955;28;20089;-82
2022/04/21 06:55:20;;;;;;;26.08;18.25;;;;;;;;;;5068030;28;20029;-83
2022/04/21 06:57:46;;;;;;;29.30;19.35;;;;;;;;;;5069491;28;20037;-82
2022/04/21 07:00:12;;;;;;;28.52;19.08;;;;;;;;;;5071583;28;20052;-83
2022/04/21 07:02:38;;;;;;;27.17;18.58;;;;;;;;;;5071055;28;20025;-83
2022/04/21 07:05:05;;;;;;;25.98;18.90;;;;;;;;;;5070777;28;20048;-83
2022/04/21 07:07:31;;;;;;;25.63;18.63;;;;;;;;;;5060197;28;20049;-83
2022/04/21 07:09:57;;;;;;;24.55;19.58;;;;;;;;;;5057208;28;20347;-83
2022/04/21 07:12:30;;;;;;;27.65;19.30;;;;;;;;;;5058674;28;20052;-83
2022/04/21 07:15:00;;;;;;;26.30;19.25;;;;;;;;;;5071691;28;20088;-82
2022/04/21 07:17:26;;;;;;;26.85;19.30;;;;;;;;;;5071896;28;20032;-83
2022/04/21 07:19:52;;;;;;;26.65;19.67;;;;;;;;;;5068590;28;20033;-83
2022/04/21 07:22:24;;;;;;;25.20;18.75;;;;;;;;;;5050970;28;20014;-83
2022/04/21 07:24:50;;;;;;;23.40;17.87;;;;;;;;;;5055712;28;20071;-83
2022/04/21 07:27:16;;;;;;;26.45;20.00;;;;;;;;;;5070656;28;20291;-83
2022/04/21 07:29:42;;;;;;;28.42;20.27;;;;;;;;;;5070696;28;20021;-84
2022/04/21 07:32:09;;;;;;;25.83;19.70;;;;;;;;;;5051093;28;20033;-83
2022/04/21 07:34:35;;;;;;;24.70;18.88;;;;;;;;;;5058952;28;20017;-82
2022/04/21 07:37:01;;;;;;;24.00;18.05;;;;;;;;;;5063285;28;20588;-82
2022/04/21 07:39:28;;;;;;;24.20;19.00;;;;;;;;;;5050229;28;20025;-82
2022/04/21 07:41:56;;;;;;;25.75;19.23;;;;;;;;;;5067202;28;20021;-83
2022/04/21 07:44:22;;;;;;;23.95;18.50;;;;;;;;;;5055451;28;20388;-83
2022/04/21 07:46:48;;;;;;;26.17;18.38;;;;;;;;;;5050414;28;20081;-83
2022/04/21 07:54:44;;;;;;;27.40;18.90;;;;;;;;;;5067274;28;20083;-82
2022/04/21 07:57:10;;;;;;;25.90;19.50;;;;;;;;;;5068458;28;20029;-82
2022/04/21 07:59:36;;;;;;;23.92;17.85;;;;;;;;;;5057354;28;20479;-82
2022/04/21 08:02:03;;;;;;;25.27;20.35;;;;;;;;;;5066253;28;20395;-83
2022/04/21 08:04:30;;;;;;;25.45;20.08;;;;;;;;;;5070282;28;20021;-82
2022/04/21 08:06:57;;;;;;;23.42;18.25;;;;;;;;;;5063950;28;20025;-81
2022/04/21 08:09:23;;;;;;;23.23;18.35;;;;;;;;;;5055401;28;20045;-82
2022/04/21 08:11:49;;;;;;;25.52;20.15;;;;;;;;;;5068959;28;20029;-82
2022/04/21 08:14:16;;;;;;;27.30;20.00;;;;;;;;;;5069350;28;20033;-82
2022/04/21 08:16:43;;;;;;;24.35;18.90;;;;;;;;;;5069158;28;20029;-82
2022/04/21 08:19:09;;;;;;;25.02;18.55;;;;;;;;;;5050524;28;20026;-83
2022/04/21 08:21:36;;;;;;;28.52;19.98;;;;;;;;;;5049046;28;20022;-82
2022/04/21 08:32:33;;;;;;;27.50;19.48;;;;;;;;;;5055748;28;20021;-82
2022/04/21 08:32:33;;;;;;;26.90;18.90;;;;;;;;;;5049600;28;20056;-82
2022/04/21 08:35:03;;;;;;;23.58;19.30;;;;;;;;;;5048911;28;20034;-83
2022/04/21 08:37:29;;;;;;;26.08;19.10;;;;;;;;;;5048837;28;20037;-83
2022/04/21 08:39:55;;;;;;;24.60;19.52;;;;;;;;;;5052059;28;20028;-82
2022/04/21 08:42:22;;;;;;;23.52;19.58;;;;;;;;;;5067660;28;20031;-82
2022/04/21 08:44:49;;;;;;;23.42;19.08;;;;;;;;;;5068799;28;20017;-82
2022/04/21 08:47:18;;;;;;;24.00;18.85;;;;;;;;;;5069708;28;20548;-82
2022/04/21 08:49:47;;;;;;;21.50;17.10;;;;;;;;;;5068568;28;20328;-82
2022/04/21 08:52:14;;;;;;;20.98;17.50;;;;;;;;;;5060498;28;20022;-82
2022/04/21 08:54:40;;;;;;;21.98;18.17;;;;;;;;;;5052329;28;20041;-82
2022/04/21 08:57:06;;;;;;;24.27;19.02;;;;;;;;;;5050438;28;20104;-82
2022/04/21 08:59:32;;;;;;;23.83;18.75;;;;;;;;;;5050250;28;20033;-82
2022/04/21 09:01:59;;;;;;;23.48;19.00;;;;;;;;;;5069360;28;20052;-82
2022/04/21 09:04:25;;;;;;;25.58;20.17;;;;;;;;;;5059212;28;20032;-82
2022/04/21 09:06:51;;;;;;;24.10;19.35;;;;;;;;;;5051407;28;20089;-81
2022/04/21 09:09:21;;;;;;;25.00;18.55;;;;;;;;;;5051049;28;20038;-83
2022/04/21 09:11:50;;;;;;;25.92;19.15;;;;;;;;;;5052252;28;20025;-82
2022/04/21 09:14:17;;;;;;;26.20;20.02;;;;;;;;;;5058813;28;20051;-83
2022/04/21 09:16:44;;;;;;;22.80;19.05;;;;;;;;;;5072589;28;20032;-83
2022/04/21 09:19:10;;;;;;;26.13;19.13;;;;;;;;;;5072601;28;20255;-82
2022/04/21 09:21:39;;;;;;;25.27;19.15;;;;;;;;;;5073021;28;20044;-83
2022/04/21 09:24:21;;;;;;;24.50;18.70;;;;;;;;;;5073567;28;20025;-82
2022/04/21 09:26:47;;;;;;;28.88;18.35;;;;;;;;;;5051476;28;20028;-83
2022/04/21 09:29:33;;;;;;;23.20;17.52;;;;;;;;;;5053037;28;20029;-82
2022/04/21 09:32:00;;;;;;;22.20;17.40;;;;;;;;;;5055102;28;20048;-83
2022/04/21 09:34:26;;;;;;;24.17;19.20;;;;;;;;;;5071709;28;20106;-82
2022/04/21 09:36:59;;;;;;;18.83;15.98;;;;;;;;;;5072752;28;20009;-82
2022/04/21 09:39:27;;;;;;;22.10;16.23;;;;;;;;;;5070547;28;20085;-83
2022/04/21 09:41:56;;;;;;;21.42;16.77;;;;;;;;;;5069185;28;20013;-82
2022/04/21 09:47:21;;;;;;;20.92;16.83;;;;;;;;;;5051285;28;20558;-82
2022/04/21 09:49:47;;;;;;;19.42;14.88;;;;;;;;;;5048361;28;20033;-82
2022/04/21 09:52:25;;;;;;;18.45;14.50;;;;;;;;;;5049064;28;20032;-82
2022/04/21 09:54:51;;;;;;;17.80;14.70;;;;;;;;;;5062586;28;20033;-82
2022/04/21 09:57:28;;;;;;;19.23;15.60;;;;;;;;;;5055605;28;20049;-82
2022/04/21 09:59:55;;;;;;;22.13;16.80;;;;;;;;;;5029032;28;20022;-82
2022/04/21 10:02:21;;;;;;;19.63;16.58;;;;;;;;;;5032496;28;20050;-83
2022/04/21 10:04:48;;;;;;;21.00;16.88;;;;;;;;;;5050178;28;20020;-82
2022/04/21 10:07:15;;;;;;;23.17;17.20;;;;;;;;;;5067315;28;20029;-82
2022/04/21 10:09:41;;;;;;;21.10;16.98;;;;;;;;;;5051541;28;20602;-82
2022/04/21 10:12:07;;;;;;;19.77;16.20;;;;;;;;;;5047501;28;20018;-82
2022/04/21 10:14:34;;;;;;;24.45;17.58;;;;;;;;;;5056068;28;20029;-83
2022/04/21 10:17:00;;;;;;;18.30;15.55;;;;;;;;;;5065692;28;20033;-82
2022/04/21 10:19:27;;;;;;;20.05;15.45;;;;;;;;;;5044591;28;20034;-83
2022/04/21 10:21:56;;;;;;;19.98;15.60;;;;;;;;;;5047509;28;20029;-82
2022/04/21 10:24:23;;;;;;;20.58;15.90;;;;;;;;;;5039527;28;20351;-83
2022/04/21 10:26:49;;;;;;;23.08;17.63;;;;;;;;;;5036229;28;20029;-82
2022/04/21 10:29:21;;;;;;;19.65;16.88;;;;;;;;;;5029680;28;20057;-82
2022/04/21 10:32:00;;;;;;;20.85;16.33;;;;;;;;;;5050886;28;20510;-83
2022/04/21 10:34:38;;;;;;;17.75;13.93;;;;;;;;;;5032520;28;20060;-81
2022/04/21 10:37:10;;;;;;;19.25;15.75;;;;;;;;;;5027950;28;20179;-82
2022/04/21 10:39:36;;;;;;;18.20;14.48;;;;;;;;;;5055553;28;20037;-82
2022/04/21 10:42:13;;;;;;;20.63;16.13;;;;;;;;;;5062550;28;20034;-83
2022/04/21 10:44:53;;;;;;;20.15;15.75;;;;;;;;;;5042246;28;20415;-83
2022/04/21 10:47:28;;;;;;;18.02;14.82;;;;;;;;;;5046155;28;20117;-83
2022/04/21 10:49:57;;;;;;;19.15;16.02;;;;;;;;;;5042151;28;20484;-83
2022/04/21 10:57:51;;;;;;;20.85;15.93;;;;;;;;;;5046315;28;20032;-82
2022/04/21 11:00:26;;;;;;;18.33;15.77;;;;;;;;;;5074580;28;20092;-82
2022/04/21 11:03:06;;;;;;;19.67;16.23;;;;;;;;;;5072135;28;20025;-83
2022/04/21 11:05:33;;;;;;;21.23;16.95;;;;;;;;;;5065451;28;20052;-84
2022/04/21 11:08:03;;;;;;;21.60;16.48;;;;;;;;;;5058129;28;20052;-84
2022/04/21 11:10:38;;;;;;;20.88;17.60;;;;;;;;;;5060004;28;20021;-83
2022/04/21 11:13:05;;;;;;;17.95;14.07;;;;;;;;;;5047175;28;20021;-82
2022/04/21 11:15:33;;;;;;;16.33;13.43;;;;;;;;;;5046882;28;20029;-82
2022/04/21 11:18:12;;;;;;;14.15;10.75;;;;;;;;;;5040140;28;20045;-82
2022/04/21 11:20:39;;;;;;;16.88;12.07;;;;;;;;;;5044979;28;20017;-82
2022/04/21 11:23:08;;;;;;;16.75;13.73;;;;;;;;;;5054142;28;20119;-81
2022/04/21 11:25:35;;;;;;;17.35;13.98;;;;;;;;;;5060786;28;20024;-82
2022/04/21 11:28:01;;;;;;;14.88;12.43;;;;;;;;;;5057770;28;20021;-82
2022/04/21 11:30:28;;;;;;;13.60;12.00;;;;;;;;;;5058569;28;20559;-82
2022/04/21 11:32:54;;;;;;;16.42;12.82;;;;;;;;;;5055500;28;20132;-82
2022/04/21 11:35:22;;;;;;;19.23;13.63;;;;;;;;;;5068640;28;20056;-82
2022/04/21 11:37:52;;;;;;;15.65;13.57;;;;;;;;;;5058232;28;20018;-83
2022/04/21 11:40:19;;;;;;;14.98;11.50;;;;;;;;;;5057826;28;20021;-85
2022/04/21 11:42:45;;;;;;;11.63;9.23;;;;;;;;;;5056821;28;20025;-81
2022/04/21 11:45:11;;;;;;;9.93;7.80;;;;;;;;;;5041446;28;20037;-82
2022/04/21 11:47:39;;;;;;;10.63;8.60;;;;;;;;;;5034843;28;20083;-82
2022/04/21 11:50:05;;;;;;;10.45;7.40;;;;;;;;;;5034966;28;20104;-83
2022/04/21 11:52:31;;;;;;;11.30;8.20;;;;;;;;;;5032991;28;20040;-82
2022/04/21 11:55:00;;;;;;;9.98;7.50;;;;;;;;;;5047656;28;20047;-82
2022/04/21 11:57:40;;;;;;;8.00;6.10;;;;;;;;;;5063168;28;20025;-82
2022/04/21 12:00:06;;;;;;;7.32;4.90;;;;;;;;;;5055686;28;20037;-81
2022/04/21 12:08:02;;;;;;;7.10;5.32;;;;;;;;;;5034951;28;20066;-82
2022/04/21 12:10:28;;;;;;;8.35;5.20;;;;;;;;;;5044653;28;20033;-83
2022/04/21 12:12:54;;;;;;;6.88;5.10;;;;;;;;;;5045813;28;20104;-83
2022/04/21 12:15:27;;;;;;;8.82;5.80;;;;;;;;;;5035375;28;20025;-82
2022/04/21 12:17:58;;;;;;;8.50;5.97;;;;;;;;;;5029322;28;20026;-83
2022/04/21 12:20:24;;;;;;;8.82;5.80;;;;;;;;;;5021576;28;20021;-82
2022/04/21 12:22:50;;;;;;;9.98;5.57;;;;;;;;;;5034600;28;20109;-83
2022/04/21 12:25:16;;;;;;;9.02;6.35;;;;;;;;;;5035352;28;20534;-82
2022/04/21 12:27:44;;;;;;;8.90;6.50;;;;;;;;;;5055009;28;20048;-83
2022/04/21 12:30:15;;;;;;;9.30;5.80;;;;;;;;;;5023704;28;20425;-82
2022/04/21 12:32:50;;;;;;;8.40;5.22;;;;;;;;;;5032446;28;20416;-82
2022/04/21 12:35:18;;;;;;;8.13;6.18;;;;;;;;;;5016154;28;20030;-83
2022/04/21 12:38:50;;;;;;;6.97;6.25;;;;;;;;;;5031885;28;20028;-83
2022/04/21 12:40:37;;;;;;;7.32;5.68;;;;;;;;;;5039227;28;20029;-83
2022/04/21 12:43:03;;;;;;;7.85;6.05;;;;;;;;;;5019643;28;20022;-82
2022/04/21 12:45:29;;;;;;;8.57;6.20;;;;;;;;;;5017809;28;20030;-82
2022/04/21 12:47:58;;;;;;;8.18;5.93;;;;;;;;;;5025510;28;20025;-83
2022/04/21 12:50:24;;;;;;;8.00;6.28;;;;;;;;;;5046973;28;20028;-82
2022/04/21 12:52:57;;;;;;;8.15;6.15;;;;;;;;;;5041391;28;20034;-81
2022/04/21 12:55:23;;;;;;;;;;;;;;;;;;5040202;28;20039;-82
2022/04/21 12:57:59;;;;;;;8.25;6.38;;;;;;;;;;5042880;28;19909;-82
2022/04/21 13:00:25;;;;;;;8.75;6.18;;;;;;;;;;5054985;28;20029;-82
2022/04/21 13:02:51;;;;;;;8.18;6.53;;;;;;;;;;5039679;28;20505;-83
2022/04/21 13:05:18;;;;;;;8.57;6.50;;;;;;;;;;5034469;28;20017;-82
2022/04/21 13:07:44;;;;;;;11.50;7.13;;;;;;;;;;5034972;28;20395;-83
2022/04/21 13:10:10;;;;;;;10.35;7.53;;;;;;;;;;5036246;28;20033;-83
2022/04/21 13:12:36;;;;;;;8.07;6.90;;;;;;;;;;5039167;28;20036;-83
2022/04/21 13:15:04;;;;;;;9.75;7.72;;;;;;;;;;5049507;28;20040;-82
2022/04/21 13:17:30;;;;;;;9.48;7.70;;;;;;;;;;5048980;28;20955;-83
2022/04/21 13:19:56;;;;;;;13.10;7.68;;;;;;;;;;5029258;28;20034;-83
2022/04/21 13:22:22;;;;;;;8.10;5.90;;;;;;;;;;5017782;28;20032;-82
2022/04/21 13:24:48;;;;;;;8.27;5.90;;;;;;;;;;5041902;28;20053;-81
2022/04/21 13:27:19;;;;;;;7.78;5.72;;;;;;;;;;5053923;28;20052;-80
2022/04/21 13:29:45;;;;;;;7.43;6.10;;;;;;;;;;5028013;28;20030;-82
2022/04/21 13:34:57;;;;;;;8.73;6.20;;;;;;;;;;5023469;28;20103;-82
2022/04/21 13:37:23;;;;;;;7.50;5.63;;;;;;;;;;5022523;28;20017;-83
2022/04/21 13:39:49;;;;;;;6.70;5.28;;;;;;;;;;5031800;28;20517;-82
2022/04/21 13:42:15;;;;;;;7.15;5.20;;;;;;;;;;5037911;28;20037;-83
2022/04/21 13:44:41;;;;;;;7.85;5.20;;;;;;;;;;5046896;28;20088;-83
2022/04/21 13:47:07;;;;;;;7.25;4.78;;;;;;;;;;5040495;28;20049;-84
2022/04/21 13:49:34;;;;;;;6.50;4.10;;;;;;;;;;5026198;28;20049;-83
2022/04/21 13:52:03;;;;;;;7.53;4.70;;;;;;;;;;5027600;28;20105;-83
2022/04/21 13:54:29;;;;;;;5.85;4.32;;;;;;;;;;5040191;28;20078;-82
2022/04/21 13:56:55;;;;;;;6.82;4.15;;;;;;;;;;5061476;28;20045;-83
2022/04/21 13:59:22;;;;;;;6.18;4.82;;;;;;;;;;5046913;28;20088;-83
2022/04/21 14:01:48;;;;;;;6.80;4.57;;;;;;;;;;5046830;28;20095;-82
2022/04/21 14:04:14;;;;;;;6.82;4.97;;;;;;;;;;5047557;28;20028;-83
2022/04/21 14:06:40;;;;;;;7.47;4.20;;;;;;;;;;5039375;28;20387;-82
2022/04/21 14:09:07;;;;;;;6.30;3.63;;;;;;;;;;5037521;28;20045;-83
2022/04/21 14:11:34;;;;;;;6.00;3.78;;;;;;;;;;5037494;28;20022;-82
2022/04/21 14:14:00;;;;;;;5.85;3.90;;;;;;;;;;5035379;28;20080;-83
2022/04/21 14:16:26;;;;;;;6.40;3.78;;;;;;;;;;5050223;28;20032;-83
2022/04/21 14:18:53;;;;;;;6.40;3.83;;;;;;;;;;5040888;28;20060;-83
2022/04/21 14:21:20;;;;;;;7.07;4.10;;;;;;;;;;5030275;28;20384;-83
2022/04/21 14:23:46;;;;;;;8.20;4.40;;;;;;;;;;5038893;28;20032;-82
2022/04/21 14:26:14;;;;;;;6.03;4.10;;;;;;;;;;5038556;28;20049;-83
2022/04/21 14:28:40;;;;;;;5.85;3.88;;;;;;;;;;5041345;28;20021;-84
2022/04/21 14:31:08;;;;;;;6.10;4.30;;;;;;;;;;5041367;28;20484;-84
2022/04/21 14:33:37;;;;;;;18.08;6.47;;;;;;;;;;5032840;28;20017;-83
2022/04/21 14:36:07;;;;;;;5.35;3.75;;;;;;;;;;5052768;28;20487;-83
2022/04/21 14:44:07;;;;;;;5.25;4.20;;;;;;;;;;5037417;28;20032;-81
2022/04/21 14:46:34;;;;;;;6.28;4.00;;;;;;;;;;5037156;28;20009;-82
2022/04/21 14:49:00;;;;;;;5.93;3.70;;;;;;;;;;5041845;28;20036;-83
2022/04/21 14:51:28;;;;;;;5.63;3.88;;;;;;;;;;5037250;28;20093;-84
2022/04/21 14:53:54;;;;;;;5.97;4.13;;;;;;;;;;5036463;28;20064;-83
2022/04/21 14:56:20;;;;;;;9.05;4.97;;;;;;;;;;5044851;28;20021;-84
2022/04/21 14:58:47;;;;;;;7.57;4.85;;;;;;;;;;5039797;28;20037;-84
2022/04/21 15:01:14;;;;;;;6.55;4.20;;;;;;;;;;5038314;28;20387;-83
2022/04/21 15:03:40;;;;;;;5.97;3.65;;;;;;;;;;5036831;28;20079;-83
2022/04/21 15:06:07;;;;;;;6.05;3.78;;;;;;;;;;5037560;28;20338;-83
2022/04/21 15:08:34;;;;;;;5.57;3.80;;;;;;;;;;5039092;28;20095;-83
2022/04/21 15:11:00;;;;;;;6.75;4.72;;;;;;;;;;5052977;28;20087;-84
2022/04/21 15:13:26;;;;;;;6.82;3.70;;;;;;;;;;5036624;28;20023;-86
2022/04/21 15:15:52;;;;;;;6.18;4.30;;;;;;;;;;5040560;28;20032;-84
2022/04/21 15:18:18;;;;;;;6.20;4.10;;;;;;;;;;5039529;28;20068;-85
2022/04/21 15:20:44;;;;;;;6.43;4.90;;;;;;;;;;5032804;28;20021;-82
2022/04/21 15:23:12;;;;;;;6.38;4.35;;;;;;;;;;5037103;28;20048;-83
2022/04/21 15:25:38;;;;;;;6.13;3.88;;;;;;;;;;5036470;28;20028;-82
2022/04/21 15:28:11;;;;;;;5.97;4.30;;;;;;;;;;5038599;28;20022;-81